sensor_id;sensor_type;location;lat;lon;timestamp;temperature;humidity
31499;DHT22;18115;52.486;13.386;2023-02-28T00:00:26;1.60;99.90
31499;DHT22;18115;52.486;13.386;2023-02-28T00:02:52;1.60;99.90
31499;DHT22;18115;52.486;13.386;2023-02-28T00:05:20;1.80;99.90
31499;DHT22;18115;52.486;13.386;2023-02-28T00:07:47;1.70;99.90
31499;DHT22;18115;52.486;13.386;2023-02-28T00:10:16;1.70;99.90
31499;DHT22;18115;52.486;13.386;2023-02-28T00:12:46;1.80;99.90
31499;DHT22;18115;52.486;13.386;2023-02-28T00:15:12;1.80;99.90
31499;DHT22;18115;52.486;13.386;2023-02-28T00:17:38;1.70;99.90
31499;DHT22;18115;52.486;13.386;2023-02-28T00:20:05;2.20;99.90
31499;DHT22;18115;52.486;13.386;2023-02-28T00:22:34;1.70;99.90
31499;DHT22;18115;52.486;13.386;2023-02-28T00:24:59;1.80;99.90
31499;DHT22;18115;52.486;13.386;2023-02-28T00:27:25;1.70;99.90
31499;DHT22;18115;52.486;13.386;2023-02-28T00:29:51;1.70;99.90
31499;DHT22;18115;52.486;13.386;2023-02-28T00:32:16;1.80;99.90
31499;DHT22;18115;52.486;13.386;2023-02-28T00:34:44;2.00;99.90
31499;DHT22;18115;52.486;13.386;2023-02-28T00:37:11;1.80;99.90
31499;DHT22;18115;52.486;13.386;2023-02-28T00:39:39;1.70;99.90
31499;DHT22;18115;52.486;13.386;2023-02-28T00:42:06;1.70;99.90
31499;DHT22;18115;52.486;13.386;2023-02-28T00:44:32;1.60;99.90
31499;DHT22;18115;52.486;13.386;2023-02-28T00:46:59;1.60;99.90
31499;DHT22;18115;52.486;13.386;2023-02-28T00:49:26;1.80;99.90
31499;DHT22;18115;52.486;13.386;2023-02-28T00:51:52;2.10;99.90
31499;DHT22;18115;52.486;13.386;2023-02-28T00:54:18;1.60;99.90
31499;DHT22;18115;52.486;13.386;2023-02-28T00:56:44;1.60;99.90
31499;DHT22;18115;52.486;13.386;2023-02-28T00:59:12;1.50;99.90
31499;DHT22;18115;52.486;13.386;2023-02-28T01:01:37;1.60;99.90
31499;DHT22;18115;52.486;13.386;2023-02-28T01:04:03;1.60;99.90
31499;DHT22;18115;52.486;13.386;2023-02-28T01:06:30;2.00;99.90
31499;DHT22;18115;52.486;13.386;2023-02-28T01:08:56;1.60;99.90
31499;DHT22;18115;52.486;13.386;2023-02-28T01:11:21;1.60;99.90
31499;DHT22;18115;52.486;13.386;2023-02-28T01:13:47;1.50;99.90
31499;DHT22;18115;52.486;13.386;2023-02-28T01:16:13;2.60;99.90
31499;DHT22;18115;52.486;13.386;2023-02-28T01:18:39;1.50;99.90
31499;DHT22;18115;52.486;13.386;2023-02-28T01:21:13;1.80;99.90
31499;DHT22;18115;52.486;13.386;2023-02-28T01:23:40;1.60;99.90
31499;DHT22;18115;52.486;13.386;2023-02-28T01:26:17;1.30;99.90
31499;DHT22;18115;52.486;13.386;2023-02-28T01:31:10;1.30;99.90
31499;DHT22;18115;52.486;13.386;2023-02-28T01:33:36;1.30;99.90
31499;DHT22;18115;52.486;13.386;2023-02-28T01:36:05;1.30;99.90
31499;DHT22;18115;52.486;13.386;2023-02-28T01:38:31;1.30;99.90
31499;DHT22;18115;52.486;13.386;2023-02-28T01:40:57;1.20;99.90
31499;DHT22;18115;52.486;13.386;2023-02-28T01:43:31;2.20;99.90
31499;DHT22;18115;52.486;13.386;2023-02-28T01:45:59;1.30;99.90
31499;DHT22;18115;52.486;13.386;2023-02-28T01:48:37;1.10;99.90
31499;DHT22;18115;52.486;13.386;2023-02-28T01:51:11;1.00;99.90
31499;DHT22;18115;52.486;13.386;2023-02-28T01:53:45;1.10;99.90
31499;DHT22;18115;52.486;13.386;2023-02-28T01:56:13;1.10;99.90
31499;DHT22;18115;52.486;13.386;2023-02-28T01:58:47;0.80;99.90
31499;DHT22;18115;52.486;13.386;2023-02-28T02:01:13;0.80;99.90
31499;DHT22;18115;52.486;13.386;2023-02-28T02:03:51;0.70;99.90
31499;DHT22;18115;52.486;13.386;2023-02-28T02:06:34;0.70;99.90
31499;DHT22;18115;52.486;13.386;2023-02-28T02:09:00;0.60;99.90
31499;DHT22;18115;52.486;13.386;2023-02-28T02:11:26;0.50;99.90
31499;DHT22;18115;52.486;13.386;2023-02-28T02:36:28;-0.10;99.90
31499;DHT22;18115;52.486;13.386;2023-02-28T02:39:04;-0.20;99.90
31499;DHT22;18115;52.486;13.386;2023-02-28T02:41:39;-0.60;99.90
31499;DHT22;18115;52.486;13.386;2023-02-28T02:44:25;-0.30;99.90
31499;DHT22;18115;52.486;13.386;2023-02-28T02:46:53;-0.30;99.90
31499;DHT22;18115;52.486;13.386;2023-02-28T02:49:30;-0.50;99.90
31499;DHT22;18115;52.486;13.386;2023-02-28T02:51:58;-0.40;99.90
31499;DHT22;18115;52.486;13.386;2023-02-28T02:54:29;-0.60;99.90
31499;DHT22;18115;52.486;13.386;2023-02-28T02:57:05;-0.60;99.90
31499;DHT22;18115;52.486;13.386;2023-02-28T02:59:32;-0.70;99.90
31499;DHT22;18115;52.486;13.386;2023-02-28T03:02:02;-0.70;99.90
31499;DHT22;18115;52.486;13.386;2023-02-28T03:04:38;-0.60;99.90
31499;DHT22;18115;52.486;13.386;2023-02-28T03:07:05;-0.70;99.90
31499;DHT22;18115;52.486;13.386;2023-02-28T03:09:33;-0.80;99.90
31499;DHT22;18115;52.486;13.386;2023-02-28T03:11:59;-0.70;99.90
31499;DHT22;18115;52.486;13.386;2023-02-28T03:28:41;-0.80;99.90
31499;DHT22;18115;52.486;13.386;2023-02-28T03:33:54;-0.90;99.90
31499;DHT22;18115;52.486;13.386;2023-02-28T03:36:30;-0.90;99.90
31499;DHT22;18115;52.486;13.386;2023-02-28T03:41:25;-0.90;99.90
31499;DHT22;18115;52.486;13.386;2023-02-28T03:43:59;-0.90;99.90
31499;DHT22;18115;52.486;13.386;2023-02-28T03:46:31;-1.00;99.90
31499;DHT22;18115;52.486;13.386;2023-02-28T03:49:11;-1.50;99.90
31499;DHT22;18115;52.486;13.386;2023-02-28T03:51:38;-1.10;99.90
31499;DHT22;18115;52.486;13.386;2023-02-28T03:54:11;-1.30;99.90
31499;DHT22;18115;52.486;13.386;2023-02-28T03:59:13;-1.00;99.90
31499;DHT22;18115;52.486;13.386;2023-02-28T04:01:45;-1.20;99.90
31499;DHT22;18115;52.486;13.386;2023-02-28T04:04:12;-1.10;99.90
31499;DHT22;18115;52.486;13.386;2023-02-28T04:06:38;-1.20;99.90
31499;DHT22;18115;52.486;13.386;2023-02-28T04:09:05;-1.10;99.90
31499;DHT22;18115;52.486;13.386;2023-02-28T04:11:43;-1.00;99.90
31499;DHT22;18115;52.486;13.386;2023-02-28T04:14:10;-1.10;99.90
31499;DHT22;18115;52.486;13.386;2023-02-28T04:16:39;-1.20;99.90
31499;DHT22;18115;52.486;13.386;2023-02-28T04:19:06;-1.10;99.90
31499;DHT22;18115;52.486;13.386;2023-02-28T04:21:34;-1.10;99.90
31499;DHT22;18115;52.486;13.386;2023-02-28T04:24:01;-1.20;99.90
31499;DHT22;18115;52.486;13.386;2023-02-28T04:26:30;-1.20;99.90
31499;DHT22;18115;52.486;13.386;2023-02-28T04:28:56;-1.20;99.90
31499;DHT22;18115;52.486;13.386;2023-02-28T04:31:22;-1.20;99.90
31499;DHT22;18115;52.486;13.386;2023-02-28T04:33:48;-1.20;99.90
31499;DHT22;18115;52.486;13.386;2023-02-28T04:38:40;-1.20;99.90
31499;DHT22;18115;52.486;13.386;2023-02-28T04:41:06;-1.30;99.90
31499;DHT22;18115;52.486;13.386;2023-02-28T04:43:31;-1.10;99.90
31499;DHT22;18115;52.486;13.386;2023-02-28T04:46:00;-1.30;99.90
31499;DHT22;18115;52.486;13.386;2023-02-28T04:48:28;-1.20;99.90
31499;DHT22;18115;52.486;13.386;2023-02-28T04:53:21;-1.10;99.90
31499;DHT22;18115;52.486;13.386;2023-02-28T04:55:46;-1.20;99.90
31499;DHT22;18115;52.486;13.386;2023-02-28T04:58:13;-1.10;99.90
31499;DHT22;18115;52.486;13.386;2023-02-28T05:00:39;-1.10;99.90
31499;DHT22;18115;52.486;13.386;2023-02-28T05:05:30;-1.10;99.90
31499;DHT22;18115;52.486;13.386;2023-02-28T05:07:56;-1.10;99.90
31499;DHT22;18115;52.486;13.386;2023-02-28T05:10:22;-1.10;99.90
31499;DHT22;18115;52.486;13.386;2023-02-28T05:12:48;-1.10;99.90
31499;DHT22;18115;52.486;13.386;2023-02-28T05:15:17;-1.20;99.90
31499;DHT22;18115;52.486;13.386;2023-02-28T05:20:10;-1.00;99.90
31499;DHT22;18115;52.486;13.386;2023-02-28T05:22:39;-1.10;99.90
31499;DHT22;18115;52.486;13.386;2023-02-28T05:25:05;-1.10;99.90
31499;DHT22;18115;52.486;13.386;2023-02-28T05:27:31;-1.10;99.90
31499;DHT22;18115;52.486;13.386;2023-02-28T05:37:16;-1.30;99.90
31499;DHT22;18115;52.486;13.386;2023-02-28T05:39:43;-1.60;99.90
31499;DHT22;18115;52.486;13.386;2023-02-28T05:44:35;-1.20;99.90
31499;DHT22;18115;52.486;13.386;2023-02-28T05:54:19;-1.30;99.90
31499;DHT22;18115;52.486;13.386;2023-02-28T05:56:44;-1.20;99.90
31499;DHT22;18115;52.486;13.386;2023-02-28T05:59:14;-1.20;99.90
31499;DHT22;18115;52.486;13.386;2023-02-28T06:01:44;-1.40;99.90
31499;DHT22;18115;52.486;13.386;2023-02-28T06:04:14;-1.20;99.90
31499;DHT22;18115;52.486;13.386;2023-02-28T06:06:43;-1.60;99.90
31499;DHT22;18115;52.486;13.386;2023-02-28T06:16:29;-2.00;99.90
31499;DHT22;18115;52.486;13.386;2023-02-28T06:18:58;-1.10;99.90
31499;DHT22;18115;52.486;13.386;2023-02-28T06:21:24;-1.20;99.90
31499;DHT22;18115;52.486;13.386;2023-02-28T06:23:49;-1.10;99.90
31499;DHT22;18115;52.486;13.386;2023-02-28T06:26:15;-1.00;99.90
31499;DHT22;18115;52.486;13.386;2023-02-28T06:28:41;-0.90;99.90
31499;DHT22;18115;52.486;13.386;2023-02-28T06:31:11;-1.00;99.90
31499;DHT22;18115;52.486;13.386;2023-02-28T06:33:38;-1.00;99.90
31499;DHT22;18115;52.486;13.386;2023-02-28T06:36:05;-1.00;99.90
31499;DHT22;18115;52.486;13.386;2023-02-28T06:40:59;-1.00;99.90
31499;DHT22;18115;52.486;13.386;2023-02-28T06:43:27;-0.90;99.90
31499;DHT22;18115;52.486;13.386;2023-02-28T06:45:57;-1.00;99.90
31499;DHT22;18115;52.486;13.386;2023-02-28T06:48:23;-0.90;99.90
31499;DHT22;18115;52.486;13.386;2023-02-28T07:00:43;-0.70;99.90
31499;DHT22;18115;52.486;13.386;2023-02-28T07:03:11;-0.60;99.90
31499;DHT22;18115;52.486;13.386;2023-02-28T07:05:37;-0.70;99.90
31499;DHT22;18115;52.486;13.386;2023-02-28T23:04:23;-0.20;99.90
31499;DHT22;18115;52.486;13.386;2023-02-28T23:06:51;-0.30;99.90
31499;DHT22;18115;52.486;13.386;2023-02-28T23:09:17;-0.30;99.90
31499;DHT22;18115;52.486;13.386;2023-02-28T23:11:45;-0.30;99.90
31499;DHT22;18115;52.486;13.386;2023-02-28T23:14:13;-0.40;99.90
31499;DHT22;18115;52.486;13.386;2023-02-28T23:19:10;-0.40;99.90
31499;DHT22;18115;52.486;13.386;2023-02-28T23:21:36;-0.40;99.90
31499;DHT22;18115;52.486;13.386;2023-02-28T23:24:03;-0.10;99.90
31499;DHT22;18115;52.486;13.386;2023-02-28T23:26:32;-0.50;99.90
31499;DHT22;18115;52.486;13.386;2023-02-28T23:28:58;-0.50;99.90
31499;DHT22;18115;52.486;13.386;2023-02-28T23:31:24;-0.40;99.90
31499;DHT22;18115;52.486;13.386;2023-02-28T23:33:50;-0.40;99.90
31499;DHT22;18115;52.486;13.386;2023-02-28T23:36:16;-0.40;99.90
31499;DHT22;18115;52.486;13.386;2023-02-28T23:38:45;-0.40;99.90
31499;DHT22;18115;52.486;13.386;2023-02-28T23:41:12;-0.40;99.90
31499;DHT22;18115;52.486;13.386;2023-02-28T23:43:38;-0.50;99.90
31499;DHT22;18115;52.486;13.386;2023-02-28T23:46:05;-0.20;99.90
31499;DHT22;18115;52.486;13.386;2023-02-28T23:48:31;-0.50;99.90
31499;DHT22;18115;52.486;13.386;2023-02-28T23:51:18;-0.60;99.90
31499;DHT22;18115;52.486;13.386;2023-02-28T23:53:46;-0.60;99.90
31499;DHT22;18115;52.486;13.386;2023-02-28T23:56:14;0.90;99.90
31499;DHT22;18115;52.486;13.386;2023-02-28T23:58:43;-0.50;99.90
